Carson Valley, Nevada Weather observations

Data are for 10 minute period ending at time listed.
 Day   Time   Solar   Ave.   Ave.  Ave.  Vector  Max.   Baro.   Total    
  of    of     Rad.   Air    Rel.  Wind   Wind   Wind  Press.  Precip.   
Year   Day            Temp.  Hum.  Speed  Dir.   Gust                    
2017   (PST)  Kw/m2    F      %     mph   deg.    mph    mb.     in.     
-------------------------------------------------------------------------
  23    0:00   0.00   30.6    97    0.0     0     0.0   842.8    0.00 
  23    0:10   0.00   30.3    97    0.0     0     0.0   842.8    0.00 
  23    0:20   0.00   30.2    98    0.0     0     0.0   842.7    0.00 
  23    0:30   0.00   29.9    97    0.0     0     0.0   842.8    0.00 
  23    0:40   0.00   29.7    97    0.0     0     0.0   842.8    0.00 
  23    0:50   0.00   29.7    97    0.0     0     0.0   842.9    0.00 
  23    1:00   0.00   29.5    97    0.0     0     0.0   842.8    0.00 
  23    1:10   0.00   29.5    97    0.0     0     0.0   842.8    0.00 
  23    1:20   0.00   29.4    98    0.0     0     0.0   842.8    0.00 
  23    1:30   0.00   29.3    98    0.0     0     0.0   843.0    0.00 
  23    1:40   0.00   29.3    98    0.0     0     0.0   843.1    0.00 
  23    1:50   0.00   29.2    98    0.0     0     0.0   843.2    0.00 
  23    2:00   0.00   29.0    98    0.0     0     0.0   843.2    0.00 
  23    2:10   0.00   28.9    98    0.0     0     0.0   843.2    0.00 
  23    2:20   0.00   28.9    98    0.0     0     0.0   843.3    0.00 
  23    2:30   0.00   28.8    97    0.0     0     0.0   843.5    0.00 
  23    2:40   0.00   28.7    97    0.0     0     0.0   843.3    0.00 
  23    2:50   0.00   28.7    98    0.0     0     0.0   843.3    0.00 
  23    3:00   0.00   28.7    98    0.0     0     0.0   843.5    0.00 
  23    3:10   0.00   28.7    98    0.0     0     0.0   843.5    0.00 
  23    3:20   0.00   28.6    97    0.0     0     0.0   843.5    0.00 
  23    3:30   0.00   28.5    97    0.0     0     0.0   843.5    0.00 
  23    3:40   0.00   28.3    97    0.0     0     0.0   843.4    0.00 
  23    3:50   0.00   28.2    97    0.0     0     0.0   843.5    0.00 
  23    4:00   0.00   28.3    97    0.0     0     0.0   843.5    0.00 
  23    4:10   0.00   28.4    97    0.0     0     0.0   843.6    0.00 
  23    4:20   0.00   28.6    97    0.0     0     0.0   843.7    0.00 
  23    4:30   0.00   28.6    97    0.0     0     0.0   843.7    0.00 
  23    4:40   0.00   28.6    97    0.0     0     0.0   843.7    0.00 
  23    4:50   0.00   28.7    97    0.0     0     0.0   843.9    0.00 
  23    5:00   0.00   28.2    97    0.0     0     0.0   844.0    0.00 
  23    5:10   0.00   27.9    97    0.0     0     0.0   844.0    0.00 
  23    5:20   0.00   28.1    97    0.0     0     0.0   844.1    0.00 
  23    5:30   0.00   28.2    97    0.0     0     0.0   844.2    0.00 
  23    5:40   0.00   28.1    97    0.0     0     0.0   844.3    0.00 
  23    5:50   0.00   28.0    97    0.0     0     0.0   844.2    0.00 
  23    6:00   0.00   27.8    97    0.0     0     0.0   844.2    0.00 
  23    6:10   0.00   27.5    97    0.0     0     0.0   844.4    0.00 
  23    6:20   0.00   27.5    97    0.0     0     0.0   844.5    0.00 
  23    6:30   0.00   27.0    97    0.0     0     0.0   844.6    0.00 
  23    6:40   0.00   26.8    97    0.0     0     0.0   844.7    0.00 
  23    6:50   0.00   26.8    96    0.0     0     0.0   844.8    0.00 
  23    7:00   0.00   26.7    96    0.0     0     0.0   844.9    0.00 
  23    7:10   0.00   27.1    96    0.0     0     0.0   845.0    0.00 
  23    7:20   0.00   27.3    96    0.0     0     0.0   845.1    0.00 
  23    7:30   0.00   27.2    96    0.0     0     0.0   845.1    0.00 
  23    7:40   0.00   27.0    96    0.0     0     0.0   845.2    0.00 
  23    7:50   0.01   27.1    96    0.0     0     0.0   845.3    0.00 
  23    8:00   0.01   27.0    96    0.0     0     0.0   845.4    0.00 
  23    8:10   0.03   27.4    96    0.0     0     0.0   845.5    0.00 
  23    8:20   0.05   28.7    96    0.0     0     0.0   845.6    0.00 
  23    8:30   0.05   29.3    95    0.0     0     0.0   845.7    0.00 
  23    8:40   0.04   29.3    92    0.0     0     0.0   845.8    0.00 
  23    8:50   0.05   29.0    92    0.0     0     0.0   845.9    0.00 
  23    9:00   0.08   28.9    92    0.0     0     0.0   846.0    0.00 
  23    9:10   0.08   29.2    91    0.0     0     0.0   846.1    0.00 
  23    9:20   0.07   29.7    90    0.0     0     0.0   846.1    0.00 
  23    9:30   0.07   29.5    88    0.0     0     0.0   846.3    0.00 
  23    9:40   0.07   29.3    88    0.0     0     0.0   846.4    0.00 
  23    9:50   0.08   29.7    88    0.0     0     0.0   846.5    0.00 
  23   10:00   0.10   30.3    88    0.0     0     0.0   846.5    0.00 
  23   10:10   0.12   31.4    87    0.0     0     0.0   846.6    0.00 
  23   10:20   0.13   32.1    86    0.0     0     0.0   846.6    0.00 
  23   10:30   0.14   33.0    86    0.0     0     0.0   846.6    0.00 
  23   10:40   0.15   35.7    85    0.0     0     0.0   846.6    0.00 
  23   10:50   0.12   39.4    86    0.0     0     0.0   846.5    0.00 
  23   11:00   0.15   40.4    74    0.0     0     0.0   846.4    0.00 
  23   11:10   0.17   37.0    68    0.0     0     0.0   846.3    0.00 
  23   11:20   0.19   34.7    72    0.0     0     0.0   846.3    0.00 
  23   11:30   0.18   33.6    72    0.0     0     0.0   846.2    0.01 
  23   11:40   0.19   33.4    74    4.7   203     9.6   846.2    0.05 
  23   11:50   0.21   31.0    79    5.4   208     7.2   846.2    0.02 
  23   12:00   0.23   32.5    76    5.5   187     8.9   846.1    0.02 
  23   12:10   0.25   31.7    77    7.5   168    10.2   846.0    0.01 
  23   12:20   0.29   32.8    73    6.2   135     9.2   846.0    0.01 
  23   12:30   0.32   32.4    76    7.7   109    13.4   845.8    0.01 
  23   12:40   0.38   31.9    78    3.4    53    10.7   845.8    0.02 
  23   12:50   0.53   33.1    72    2.3    27     4.0   845.8    0.03 
  23   13:00   0.38   35.0    68    1.5   220     4.6   845.6    0.00 
  23   13:10   0.62   36.3    62    4.2   177     8.0   845.5    0.00 
  23   13:20   0.58   35.5    57    8.8   185    13.9   845.4    0.01 
  23   13:30   0.39   35.1    55    7.0   161    10.7   845.4    0.02 
  23   13:40   0.26   33.2    57    6.0   193     9.6   845.5    0.00 
  23   13:50   0.64   34.2    58    4.9   196    10.3   845.6    0.00 
  23   14:00   0.61   36.6    52    1.8   287     6.3   845.6    0.00 
  23   14:10   0.58   40.0    47    1.5   114     4.7   845.6    0.00 
  23   14:20   0.59   42.1    43    0.8   342     6.3   845.6    0.00 
  23   14:30   0.48   36.6    39    5.5   242    11.6   845.6    0.00 
  23   14:40   0.48   34.6    49    6.4   155    13.2   845.6    0.00 
  23   14:50   0.57   34.8    51    5.1   150     7.4   845.7    0.00 
  23   15:00   0.58   35.5    46    7.5   185    12.0   845.8    0.00 
  23   15:10   0.60   36.0    43    7.9   181    13.0   845.8    0.00 
  23   15:20   0.58   36.0    46    8.9   172    14.2   845.9    0.00 
  23   15:30   0.48   37.0    39    8.3   192    14.0   846.0    0.00 
  23   15:40   0.41   37.4    37    7.3   194    14.0   846.1    0.00 
  23   15:50   0.34   36.7    36    5.6   251    13.8   846.2    0.00 
  23   16:00   0.25   35.2    39    5.8   268     9.0   846.2    0.00 
  23   16:10   0.19   34.3    38    9.3   269    17.0   846.2    0.00 
  23   16:20   0.11   33.8    38    9.2   257    14.1   846.3    0.00 
  23   16:30   0.04   32.5    40    9.0   241    14.8   846.4    0.00 
  23   16:40   0.03   32.7    38    8.6   263    14.2   846.5    0.00 
  23   16:50   0.02   31.5    43    7.7   261    13.0   846.6    0.00 
  23   17:00   0.01   28.6    52    7.7   238    11.7   846.6    0.00 
  23   17:10   0.01   28.8    54    8.0   256     9.3   846.7    0.00 
  23   17:20   0.00   28.8    52    8.8   262    11.8   846.8    0.00 
  23   17:30   0.00   30.2    48    9.5   263    11.6   846.9    0.00 
  23   17:40   0.00   28.1    54    9.7   261    13.7   847.1    0.00 
  23   17:50   0.00   30.0    49   10.9   268    14.2   847.1    0.00 
  23   18:00   0.00   28.3    54    8.0   254    12.1   847.2    0.00 
  23   18:10   0.00   27.8    58    4.7   230     6.9   847.2    0.00 
  23   18:20   0.00   25.8    63    6.4   275     8.0   847.4    0.00 
  23   18:30   0.00   25.4    65    4.7   259     6.8   847.5    0.00 
  23   18:40   0.00   22.4    70    2.6   103     7.2   847.6    0.00 
  23   18:50   0.00   21.2    74    3.3   175     8.5   847.7    0.00 
  23   19:00   0.00   20.4    77    7.1   116    12.0   847.9    0.00 
  23   19:10   0.00   20.8    77    5.3   115    11.1   848.0    0.00 
  23   19:20   0.00   19.6    77    2.8   252     6.1   848.1    0.00 
  23   19:30   0.00   19.0    79    1.8    82     3.9   848.2    0.00 
  23   19:40   0.00   17.9    79    1.2    86     3.8   848.3    0.00 
  23   19:50   0.00   16.8    82    2.8    78     4.7   848.2    0.00 
  23   20:00   0.00   15.7    83    3.5   115     5.2   848.3    0.00 
  23   20:10   0.00   15.0    83    3.5    57     5.8   848.4    0.00 
  23   20:20   0.00   15.1    84    2.1   157     3.4   848.5    0.00 
  23   20:30   0.00   15.8    83    2.0    21     3.9   848.6    0.00 
  23   20:40   0.00   16.6    83    1.7    83     3.6   848.6    0.00 
  23   20:50   0.00   17.5    79    3.9    79     5.3   848.6    0.00 
  23   21:00   0.00   16.2    81    3.8    21     5.7   848.8    0.00 
  23   21:10   0.00   16.5    81    4.3    30     6.2   848.8    0.00 
  23   21:20   0.00   16.6    82    4.6    45     6.8   848.9    0.00 
  23   21:30   0.00   17.1    82    3.9    40     5.5   848.9    0.00 
  23   21:40   0.00   17.0    82    1.9    43     2.9   849.0    0.00 
  23   21:50   0.00   17.5    82    1.9   329     3.0   849.2    0.00 
  23   22:00   0.00   18.9    82    1.7    91     3.6   849.2    0.00 
  23   22:10   0.00   18.0    80    2.8   185     4.2   849.3    0.00 
  23   22:20   0.00   17.8    81    2.3    96     4.5   849.4    0.00 
  23   22:30   0.00   18.0    81    2.8    78     5.1   849.5    0.00 
  23   22:40   0.00   17.3    82    1.4    83     3.3   849.6    0.00 
  23   22:50   0.00   16.6    83    2.1   312     4.5   849.6    0.00 
  23   23:00   0.00   17.5    85    4.0    20     6.0   849.6    0.00 
  23   23:10   0.00   17.4    84    3.2    81     5.5   849.7    0.00 
  23   23:20   0.00   17.4    86    2.3    94     3.3   849.7    0.00 
  23   23:30   0.00   17.6    87    2.7   220     5.5   849.7    0.00 
  23   23:40   0.00   18.7    83    3.2   318     4.3   849.5    0.00 
  23   23:50   0.00   17.6    83    1.4    16     2.7   849.6    0.00 

Return to Carson Valley graphs page.


Western Regional Climate Center,wrcc@dri.edu